Latest Weather Observations for Double Island Point

IDQ60801

Issued at 6:04 pm EST Monday 25 July 2016 (issued every 30 minutes, with the page automatically refreshed every 10 minutes)

About weather observations | Map of weather stations | Latest weather observations for QLD | Other Formats
Station Details ID: 040068 Name: DOUBLE ISLAND POINT LIGHTHOUSE Lat: -25.93 Lon: 153.19 Height: 95.64 m
Data from the previous 72 hours. | See also: Recent months at Double Island Point
Date/Time
EST
Temp
°C
App
Temp
°C
Dew
Point
°C
Rel
Hum
%
Delta-T
°C
Wind Press
QNH
hPa
Press
MSL
hPa
Rain since
9am
mm
Dir  Spd
km/h
Gust
km/h
Spd
kts
Gust
kts
25/06:00pm 17.2 15.2 8.6 57 4.4 SE 9 13 5 7 1016.7 1016.5 0.0
25/05:30pm 17.3 14.5 8.7 57 4.4 ESE 13 15 7 8 1016.3 1016.1 0.0
25/05:00pm 17.3 14.9 8.7 57 4.4 ESE 11 15 6 8 1016.2 1016.0 0.0
25/04:30pm 17.8 15.0 8.6 55 4.8 ESE 13 17 7 9 1016.0 1015.8 0.0
25/04:00pm 18.0 14.7 8.0 52 5.1 ESE 15 19 8 10 1015.8 1015.6 0.0
25/03:30pm 18.3 15.1 8.6 53 5.0 ESE 15 20 8 11 1015.7 1015.5 0.0
25/03:00pm 18.5 15.5 7.6 49 5.6 SE 13 17 7 9 1015.6 1015.4 0.0
25/02:30pm 19.0 16.2 8.6 51 5.4 SE 13 17 7 9 1015.8 1015.6 0.0
25/02:00pm 19.3 16.8 8.3 49 5.7 ESE 11 15 6 8 1015.8 1015.6 0.0
25/01:30pm 18.7 15.6 7.2 47 5.8 SE 13 17 7 9 1016.1 1015.9 0.0
25/01:00pm 19.1 16.1 7.5 47 5.9 SE 13 17 7 9 1016.2 1016.0 0.0
25/12:30pm 18.8 15.8 7.6 48 5.7 SSE 13 17 7 9 1016.5 1016.3 0.0
25/12:00pm 18.7 14.9 7.5 48 5.7 SSE 17 22 9 12 1017.3 1017.1 0.0
25/11:30am 18.4 14.8 6.6 46 5.9 S 15 20 8 11 1017.9 1017.7 0.0
25/11:00am 18.4 14.1 7.2 48 5.7 S 19 22 10 12 1018.1 1017.9 0.0
25/10:30am 18.9 14.5 7.4 47 5.9 SSE 20 30 11 16 1018.3 1018.1 0.0
25/10:00am 18.9 16.3 7.7 48 5.7 S 11 20 6 11 1018.5 1018.3 0.0
25/09:30am 17.7 11.8 5.6 45 5.9 S 26 37 14 20 1018.6 1018.4 0.0
25/09:00am 17.5 12.5 6.4 48 5.5 S 22 32 12 17 1018.6 1018.4 0.0
25/08:30am 17.2 12.5 6.1 48 5.4 SSW 20 26 11 14 1018.2 1018.0 0.0
25/08:00am 17.2 12.6 6.4 49 5.3 S 20 26 11 14 1018.1 1017.9 0.0
25/07:30am 17.0 12.1 7.1 52 5.0 S 22 28 12 15 1017.6 1017.4 0.0
25/07:00am 17.2 11.7 6.1 48 5.4 SSW 24 32 13 17 1017.0 1016.8 0.0
25/06:30am 17.4 12.6 8.8 57 4.5 SSW 24 30 13 16 1016.6 1016.4 0.0
25/06:00am 17.5 13.9 12.0 70 3.0 SSW 22 26 12 14 1016.1 1015.9 0.0
25/05:30am 17.3 15.3 14.0 81 1.9 SSW 17 20 9 11 1015.8 1015.6 0.0
25/05:00am 17.3 17.2 14.0 81 1.9 SSW 7 13 4 7 1015.6 1015.4 0.0
25/04:30am 17.9 15.3 14.8 82 1.8 WNW 22 28 12 15 1015.1 1014.9 0.0
25/04:00am 17.9 16.2 14.8 82 1.8 WNW 17 26 9 14 1015.0 1014.8 0.0
25/03:30am 17.8 16.0 14.5 81 1.9 WNW 17 22 9 12 1015.0 1014.8 0.0
25/03:00am 17.9 15.8 14.6 81 1.9 WNW 19 24 10 13 1015.1 1014.9 0.0
25/02:30am 17.8 15.9 14.1 79 2.1 WNW 17 19 9 10 1015.2 1015.0 0.0
25/02:00am 17.8 16.3 14.1 79 2.1 W 15 19 8 10 1015.4 1015.2 0.0
25/01:30am 18.1 16.7 14.4 79 2.1 WNW 15 19 8 10 1015.4 1015.2 0.0
25/01:00am 18.2 16.3 14.1 77 2.4 WNW 17 20 9 11 1015.5 1015.3 0.0
25/12:30am 18.3 16.0 14.2 77 2.4 NW 19 22 10 12 1015.5 1015.3 0.0
25/12:00am 18.3 16.0 14.2 77 2.4 NW 19 20 10 11 1015.3 1015.1 0.0
 
Date/Time
EST
Temp
°C
App
Temp
°C
Dew
Point
°C
Rel
Hum
%
Delta-T
°C
Wind Press
QNH
hPa
Press
MSL
hPa
Rain since
9am
mm
Dir  Spd
km/h
Gust
km/h
Spd
kts
Gust
kts
24/11:30pm 18.4 16.0 14.3 77 2.4 NW 20 24 11 13 1015.3 1015.1 0.0
24/11:00pm 18.3 16.0 14.2 77 2.4 NW 19 20 10 11 1015.4 1015.2 0.0
24/10:30pm 18.8 16.5 14.1 74 2.7 NNW 19 22 10 12 1015.5 1015.3 0.0
24/10:00pm 18.7 17.6 13.1 70 3.2 NNW 11 22 6 12 1015.6 1015.4 0.0
24/09:30pm 18.7 17.5 12.9 69 3.3 NNW 11 17 6 9 1015.6 1015.4 0.0
24/09:00pm 18.8 18.3 12.5 67 3.5 NNW 7 13 4 7 1015.4 1015.2 0.0
24/08:30pm 18.8 18.2 12.3 66 3.6 NNW 7 15 4 8 1015.4 1015.2 0.0
24/08:00pm 18.7 17.8 11.5 63 4.0 N 7 11 4 6 1015.4 1015.2 0.0
24/07:30pm 18.7 17.1 11.5 63 4.0 N 11 20 6 11 1015.0 1014.8 0.0
24/07:00pm 18.6 16.1 11.2 62 4.0 N 15 20 8 11 1014.8 1014.6 0.0
24/06:30pm 18.3 16.1 10.7 61 4.1 NNE 13 19 7 10 1014.5 1014.3 0.0
24/06:00pm 18.4 16.1 10.3 59 4.3 NNE 13 17 7 9 1014.2 1014.0 0.0
24/05:30pm 18.5 16.7 9.6 56 4.7 NE 9 13 5 7 1014.0 1013.8 0.0
24/05:00pm 19.4 17.6 9.3 52 5.4 NE 9 11 5 6 1013.8 1013.6 0.0
24/04:30pm 20.2 18.9 10.0 52 5.5 NE 7 9 4 5 1013.6 1013.4 0.0
24/04:00pm 19.9 18.2 10.0 53 5.3 NE 9 11 5 6 1013.5 1013.3 0.0
24/03:30pm 19.6 18.3 9.8 53 5.2 ENE 7 13 4 7 1013.5 1013.3 0.0
24/03:00pm 20.4 19.1 11.3 56 5.0 NE 9 11 5 6 1013.6 1013.4 0.0
24/02:30pm 19.3 18.0 9.8 54 5.1 E 7 11 4 6 1013.9 1013.7 0.0
24/02:00pm 19.4 18.0 9.6 53 5.2 ESE 7 11 4 6 1014.3 1014.1 0.0
24/01:30pm 19.4 17.4 10.1 55 5.0 SE 11 15 6 8 1014.5 1014.3 0.0
24/01:00pm 19.7 18.0 11.2 58 4.7 SE 11 15 6 8 1015.0 1014.8 0.0
24/12:30pm 19.5 17.4 11.3 59 4.5 SE 13 17 7 9 1015.4 1015.2 0.0
24/12:00pm 19.4 17.0 10.1 55 5.0 SE 13 17 7 9 1015.9 1015.7 0.0
24/11:30am 19.3 16.8 9.8 54 5.1 SE 13 19 7 10 1016.2 1016.0 0.0
24/11:00am 19.3 16.5 10.0 55 5.0 SE 15 19 8 10 1016.5 1016.3 0.0
24/10:30am 19.0 15.8 9.8 55 4.9 S 17 22 9 12 1016.7 1016.5 0.0
24/10:00am 18.9 15.1 9.1 53 5.2 SSE 19 24 10 13 1016.8 1016.6 0.0
24/09:30am 18.5 14.4 7.9 50 5.4 S 19 24 10 13 1017.0 1016.8 0.0
24/09:00am 18.3 13.8 6.2 45 6.0 S 19 22 10 12 1016.8 1016.6 0.0
24/08:30am 18.0 13.6 6.5 47 5.7 S 19 24 10 13 1016.7 1016.5 0.0
24/08:00am 18.2 13.8 4.7 41 6.5 S 17 24 9 13 1016.6 1016.4 0.0
24/07:30am 17.5 14.2 4.8 43 6.1 SW 11 15 6 8 1016.1 1015.9 0.0
24/07:00am 17.5 12.6 4.1 41 6.3 SSW 19 20 10 11 1015.8 1015.6 0.0
24/06:30am 17.3 13.5 3.9 41 6.3 SSW 13 15 7 8 1015.4 1015.2 0.0
24/06:00am 17.1 13.1 4.8 44 5.9 SW 15 17 8 9 1015.1 1014.9 0.0
24/05:30am 17.4 13.1 5.4 45 5.8 SW 17 20 9 11 1014.8 1014.6 0.0
24/05:00am 17.2 13.0 5.5 46 5.7 SSW 17 19 9 10 1014.4 1014.2 0.0
24/04:30am 16.8 10.9 6.0 49 5.3 SSW 26 30 14 16 1013.8 1013.6 0.0
24/04:00am 17.1 11.3 6.3 49 5.3 SSW 26 32 14 17 1013.5 1013.3 0.0
24/03:30am 17.6 12.3 8.5 55 4.7 SSW 26 30 14 16 1013.5 1013.3 0.0
24/03:00am 18.3 12.7 8.8 54 5.0 S 28 33 15 18 1013.6 1013.4 0.0
24/02:30am 18.6 14.0 9.7 56 4.7 S 24 32 13 17 1013.2 1013.1 0.0
24/02:00am 18.2 14.8 12.4 69 3.2 SSW 22 24 12 13 1013.1 1013.0 0.0
24/01:30am 18.9 17.0 14.2 74 2.7 S 17 20 9 11 1013.0 1012.9 0.0
24/01:00am 19.2 18.1 15.3 78 2.3 S 15 17 8 9 1013.3 1013.2 0.0
24/12:30am 20.1 19.0 16.3 79 2.3 WSW 17 20 9 11 1013.2 1013.1 0.0
24/12:00am 20.0 18.2 17.0 83 1.8 W 22 26 12 14 1012.9 1012.8 0.0
 
Date/Time
EST
Temp
°C
App
Temp
°C
Dew
Point
°C
Rel
Hum
%
Delta-T
°C
Wind Press
QNH
hPa
Press
MSL
hPa
Rain since
9am
mm
Dir  Spd
km/h
Gust
km/h
Spd
kts
Gust
kts
23/11:30pm 19.9 17.9 17.3 85 1.6 WNW 24 26 13 14 1012.8 1012.7 0.0
23/11:00pm 19.6 18.4 17.6 88 1.2 WNW 20 28 11 15 1012.8 1012.7 0.0
23/10:30pm 19.4 18.2 17.4 88 1.2 WNW 20 22 11 12 1012.7 1012.6 0.0
23/10:00pm 19.5 17.9 17.5 88 1.2 WNW 22 24 12 13 1012.6 1012.5 0.0
23/09:30pm 19.5 18.3 17.5 88 1.2 WNW 20 22 11 12 1012.3 1012.2 0.0
23/09:00pm 19.7 18.5 17.5 87 1.4 WNW 20 22 11 12 1012.1 1012.0 0.0
23/08:30pm 19.9 17.9 17.5 86 1.5 W 24 28 13 15 1012.0 1011.9 0.0
23/08:00pm 20.2 18.2 17.4 84 1.7 WNW 24 28 13 15 1011.7 1011.6 0.0
23/07:30pm 20.5 18.5 17.5 83 1.8 WNW 24 28 13 15 1011.5 1011.4 0.0
23/07:00pm 20.4 18.9 17.6 84 1.7 NW 22 24 12 13 1011.3 1011.2 0.0
23/06:30pm 20.6 18.7 17.6 83 1.9 NNW 24 30 13 16 1011.0 1010.9 0.0
23/06:00pm 20.7 19.7 17.5 82 2.0 NNW 19 26 10 14 1010.5 1010.4 0.0
23/05:30pm 21.1 19.1 17.3 79 2.3 NNW 24 32 13 17 1010.2 1010.0 0.0
23/05:00pm 22.0 22.9 17.6 76 2.7 N 9 13 5 7 1009.9 1009.7 0.0
23/04:30pm 22.8 24.2 17.7 73 3.2 N 7 13 4 7 1009.6 1009.4 0.0
23/04:00pm 23.5 25.1 18.2 72 3.3 NNW 7 13 4 7 1009.3 1009.1 0.0
23/03:30pm 23.8 25.6 18.2 71 3.5 NNE 6 9 3 5 1009.1 1008.9 0.0
23/03:00pm 23.9 25.6 18.5 72 3.4 N 7 15 4 8 1009.1 1008.9 0.0
23/02:30pm 23.8 25.3 18.0 70 3.6 NNE 7 11 4 6 1009.0 1008.8 0.0
23/02:00pm 24.0 25.5 18.0 69 3.8 WNW 7 11 4 6 1009.2 1009.0 0.0
23/01:30pm 24.9 26.4 18.1 66 4.3 NNW 7 11 4 6 1009.2 1009.0 0.0
23/01:00pm 25.5 26.5 18.7 66 4.4 N 11 22 6 12 1009.6 1009.4 0.0
23/12:30pm 24.4 22.5 17.6 66 4.3 NNW 24 35 13 19 1010.2 1010.0 0.0
23/12:00pm 24.0 23.0 18.0 69 3.8 NNW 20 32 11 17 1010.8 1010.7 0.0
23/11:30am 23.6 22.8 18.0 71 3.5 NNW 19 26 10 14 1011.5 1011.4 0.0
23/11:00am 22.6 20.2 17.3 72 3.3 NNW 26 35 14 19 1011.9 1011.8 0.0
23/10:30am 22.4 20.4 17.5 74 3.0 NW 24 33 13 18 1012.3 1012.2 0.0
23/10:00am 21.7 20.6 17.7 78 2.5 NW 20 30 11 16 1012.7 1012.6 0.0
23/09:30am 20.9 19.7 17.5 81 2.1 NW 20 28 11 15 1013.0 1012.9 0.0
23/09:00am 20.4 18.7 17.2 82 2.0 NW 22 28 12 15 1013.2 1013.1 0.0
23/08:30am 20.0 17.8 17.0 83 1.8 NW 24 32 13 17 1013.1 1013.0 0.0
23/08:00am 19.7 17.5 16.9 84 1.7 NW 24 30 13 16 1013.0 1012.9 0.0
23/07:30am 19.5 16.9 16.9 85 1.6 NW 26 32 14 17 1012.9 1012.8 0.0
23/07:00am 19.3 16.3 16.7 85 1.6 NW 28 33 15 18 1012.7 1012.6 0.0
23/06:30am 19.3 17.0 16.7 85 1.6 NW 24 32 13 17 1012.6 1012.5 0.0
23/06:00am 19.2 16.5 16.6 85 1.6 NW 26 32 14 17 1012.4 1012.3 0.0
23/05:30am 19.1 17.1 16.5 85 1.6 NW 22 32 12 17 1012.3 1012.2 0.0
23/05:00am 19.0 16.3 16.6 86 1.4 NW 26 32 14 17 1012.1 1012.0 0.0
23/04:30am 18.9 16.2 16.7 87 1.3 NW 26 33 14 18 1012.0 1011.9 0.0
23/04:00am 18.7 16.0 16.5 87 1.3 NW 26 35 14 19 1012.0 1011.9 0.0
23/03:30am 18.9 16.2 16.7 87 1.3 NW 26 35 14 19 1011.9 1011.8 0.0
23/03:00am 18.9 16.2 16.5 86 1.4 NW 26 35 14 19 1012.0 1011.9 0.0
23/02:30am 18.9 15.7 16.3 85 1.6 NW 28 37 15 20 1011.9 1011.8 0.0
23/02:00am 19.1 16.3 16.3 84 1.7 NW 26 32 14 17 1012.2 1012.1 0.0
23/01:30am 19.1 15.1 16.3 84 1.7 NW 32 39 17 21 1012.1 1012.0 0.0
23/01:00am 19.2 16.0 16.4 84 1.7 NW 28 37 15 20 1012.7 1012.6 0.0
23/12:30am 19.3 15.3 16.3 83 1.8 NW 32 41 17 22 1012.7 1012.6 0.0
23/12:00am 19.4 15.8 16.2 82 1.9 NW 30 37 16 20 1012.7 1012.6 0.0
 
Date/Time
EST
Temp
°C
App
Temp
°C
Dew
Point
°C
Rel
Hum
%
Delta-T
°C
Wind Press
QNH
hPa
Press
MSL
hPa
Rain since
9am
mm
Dir  Spd
km/h
Gust
km/h
Spd
kts
Gust
kts
22/11:30pm 19.6 14.9 15.9 79 2.2 NW 35 43 19 23 1012.8 1012.7 0.0
22/11:00pm 19.4 16.0 15.9 80 2.1 NW 28 35 15 19 1013.0 1012.9 0.0
22/10:30pm 19.4 17.5 15.7 79 2.2 NW 20 28 11 15 1013.3 1013.2 0.0
22/10:00pm 19.2 16.9 15.7 80 2.1 NNW 22 26 12 14 1013.6 1013.4 0.0
22/09:30pm 19.2 17.5 15.7 80 2.1 NW 19 22 10 12 1013.8 1013.6 0.0
22/09:00pm 19.6 16.6 15.9 79 2.2 NNW 26 32 14 17 1013.7 1013.5 0.0
22/08:30pm 19.5 16.4 15.6 78 2.3 NNW 26 32 14 17 1013.7 1013.5 0.0
22/08:00pm 19.5 17.2 15.8 79 2.2 NNW 22 30 12 16 1013.8 1013.6 0.0
22/07:30pm 19.6 16.5 15.7 78 2.3 NNW 26 33 14 18 1013.8 1013.6 0.0
22/07:00pm 19.8 16.0 15.7 77 2.4 NNW 30 37 16 20 1013.5 1013.3 0.0
22/06:30pm 20.0 16.6 15.8 77 2.5 NNW 28 41 15 22 1013.1 1013.0 0.0

Other Formats:

Comma delimited format used in spreadsheet applications
http://www.bom.gov.au/fwo/IDQ60801/IDQ60801.94584.axf

JavaScript Object Notation format (JSON) in row-major order
http://www.bom.gov.au/fwo/IDQ60801/IDQ60801.94584.json